KCOU/COU METAR and TAF weather

Enter ICAO airport designator
Station Type Date Time Source
KCOU METAR 2020/07/08 22:54 UTC NOAA

KCOU 082254Z 15004KT 10SM CLR 33/22 A2986 RMK AO2 SLP103 T03280217


Station Type Date Time Source
KCOU Decoded METAR 2020/07/08 22:54 UTC NOAA

COLUMBIA REGIONAL AIRPORT, MO, United States (KCOU) 38-49N 092-13W 271M
Jul 08, 2020 - 06:54 PM EDT / 2020.07.08 2254 UTC
Wind: from the SSE (150 degrees) at 5 MPH (4 KT):0
Visibility: 10 mile(s):0
Sky conditions: clear
Temperature: 91.0 F (32.8 C)
Heat index: 97.5 F (36.4 C):1
Dew Point: 71.1 F (21.7 C)
Relative Humidity: 52%
Pressure (altimeter): 29.86 in. Hg (1011 hPa)
ob: KCOU 082254Z 15004KT 10SM CLR 33/22 A2986 RMK AO2 SLP103 T03280217
cycle: 23

Station Type Date Time Source
KCOU TAF 2020/07/08 18:22 UTC NOAA

TAF KCOU 081720Z 0818/0918 17006KT P6SM SCT050

Example: see airport list